Stuyvesant — WNFX — position and weather

sailwx.info

Track history (hours):
 
Tides and Currents Weather Stations Pressure Air Temp Water Temp Dewpoint Dewpoint Depression Visibility Wind Speed Wind Dir Waves Ship Positions

Stuyvesant

Owner: THE DUTRA GROUP, SAN RAFAEL, CA. More information available from US FCC via Universal Licensing System and Coast Guard Vessel Documentation Center.

Last reported at 2018-Jun-22 00:23 UTC. Time now 2018-Jun-25 11:40 UTC.
Position N 38°51' W 123°55'.

Length 122 m; draft 10 m.

Type: Dredging. MMSI: 368098000.

Date/timePositionNaut miles runAvg speedWind from/ knotsBaromVisibWave heightAir tempDewpointWater temp
2018-Jun-22 00:23N 38°51' W 123°55'410.5
2018-Jun-22 00:00N 38°48' W 123°53'510.5
2018-Jun-21 23:30N 38°43' W 123°51'510.6
2018-Jun-21 23:00N 38°38' W 123°49'510.3
2018-Jun-21 22:30N 38°33' W 123°46'510.3
2018-Jun-21 22:00N 38°29' W 123°41'5 9.9
2018-Jun-21 21:30N 38°25' W 123°37'5 9.6
2018-Jun-21 21:00N 38°22' W 123°33'5 9.5
2018-Jun-21 20:30N 38°18' W 123°30'5 9.3
2018-Jun-21 20:00N 38°15' W 123°26'5 9.5
2018-Jun-21 19:30N 38°11' W 123°22'5 9.2
2018-Jun-21 19:00N 38°07' W 123°18'5 9.4
2018-Jun-21 18:30N 38°04' W 123°14'5 9.9
2018-Jun-21 18:00N 37°60' W 123°10'510.1
2018-Jun-21 17:29N 37°57' W 123°05'510.1
2018-Jun-21 17:00N 37°55' W 122°60'510.3
2018-Jun-21 16:30N 37°52' W 122°54'510.4
2018-Jun-21 16:00N 37°49' W 122°48'510.5
2018-Jun-21 15:30N 37°47' W 122°43'4 8.7
2018-Jun-21 15:00N 37°46' W 122°37'713.1
2018-Jun-21 14:30N 37°49' W 122°30'510.2
2018-Jun-21 14:00N 37°53' W 122°25'2 4.2
2018-Jun-21 13:30N 37°54' W 122°23'1 2.4
2018-Jun-21 12:56N 37°55' W 122°22'0 0.1
2018-Jun-21 12:30N 37°55' W 122°22'0 0.1
2018-Jun-21 12:00N 37°55' W 122°22'0 0.0
2018-Jun-21 11:30N 37°55' W 122°22'0 0.0
2018-Jun-21 11:00N 37°55' W 122°22'0 0.1
2018-Jun-21 10:30N 37°55' W 122°22'0 0.0
2018-Jun-21 10:00N 37°55' W 122°22'0 0.0
2018-Jun-21 09:30N 37°55' W 122°22'0 0.1
2018-Jun-21 09:00N 37°55' W 122°22'0 0.0
2018-Jun-21 08:30N 37°55' W 122°22'0 0.1
2018-Jun-21 08:00N 37°55' W 122°22'0 0.0
2018-Jun-21 07:30N 37°55' W 122°22'0 0.1
2018-Jun-21 07:00N 37°55' W 122°22'0 0.0
2018-Jun-21 06:30N 37°55' W 122°22'0 0.0
2018-Jun-21 06:00N 37°55' W 122°22'0 0.1
2018-Jun-21 05:30N 37°55' W 122°22'0 0.1
2018-Jun-21 05:00N 37°55' W 122°22'0 0.0
2018-Jun-21 04:30N 37°55' W 122°22'0 0.0
2018-Jun-21 03:59N 37°55' W 122°22'0 0.0
2018-Jun-21 03:29N 37°55' W 122°22'0 0.0
2018-Jun-21 03:00N 37°55' W 122°22'0 0.0
2018-Jun-21 02:30N 37°55' W 122°22'0 0.0
2018-Jun-21 02:00N 37°55' W 122°22'0 0.0
2018-Jun-21 01:30N 37°55' W 122°22'0 0.1
2018-Jun-21 01:00N 37°55' W 122°22'0 0.0
2018-Jun-21 00:30N 37°55' W 122°22'0 0.1
2018-Jun-21 00:00N 37°55' W 122°22'0 0.0
2018-Jun-20 23:30N 37°55' W 122°22'0 0.0
2018-Jun-20 23:00N 37°55' W 122°22'0 0.0
2018-Jun-20 22:30N 37°55' W 122°22'0 0.0
2018-Jun-20 22:00N 37°55' W 122°22'0 0.0
2018-Jun-20 21:30N 37°55' W 122°22'0 0.0
2018-Jun-20 21:00N 37°55' W 122°22'0 0.0
2018-Jun-20 20:30N 37°55' W 122°22'0 0.1
2018-Jun-20 20:00N 37°55' W 122°22'0 0.0
2018-Jun-20 19:30N 37°55' W 122°22'0 0.1
2018-Jun-20 19:00N 37°55' W 122°22'0 0.0
2018-Jun-20 18:30N 37°55' W 122°22'0 0.1
2018-Jun-20 18:00N 37°55' W 122°22'0 0.1
2018-Jun-20 17:30N 37°55' W 122°22'0 0.1
2018-Jun-20 17:00N 37°55' W 122°22'0 0.1
2018-Jun-20 16:30N 37°55' W 122°22'0 0.0
2018-Jun-20 15:58N 37°55' W 122°22'0 0.0
2018-Jun-20 15:30N 37°55' W 122°22'0 0.0
2018-Jun-20 15:00N 37°55' W 122°22'0 0.0
2018-Jun-20 14:30N 37°55' W 122°22'0 0.0
2018-Jun-20 14:00N 37°55' W 122°22'0 0.0
2018-Jun-20 13:30N 37°55' W 122°22'0 0.1
2018-Jun-20 13:00N 37°55' W 122°22'0 0.0
2018-Jun-20 12:30N 37°55' W 122°22'0 0.1
2018-Jun-20 12:00N 37°55' W 122°22'0 0.1
2018-Jun-20 11:30N 37°55' W 122°22'0 0.1
2018-Jun-20 11:00N 37°55' W 122°22'0 0.1
2018-Jun-20 10:30N 37°55' W 122°22'0 0.0
2018-Jun-20 10:00N 37°55' W 122°22'0 0.1
2018-Jun-20 09:30N 37°55' W 122°22'0 0.1
2018-Jun-20 09:00N 37°55' W 122°22'0 0.0
2018-Jun-20 08:30N 37°55' W 122°22'0 0.1
2018-Jun-20 08:00N 37°55' W 122°22'0 0.1
2018-Jun-20 07:30N 37°55' W 122°22'0 0.0
2018-Jun-20 07:00N 37°55' W 122°22'0 0.1
2018-Jun-20 06:30N 37°55' W 122°22'0 0.0
2018-Jun-20 06:00N 37°55' W 122°22'0 0.0
2018-Jun-20 05:30N 37°55' W 122°22'0 0.0
2018-Jun-20 05:00N 37°55' W 122°22'0 0.0
2018-Jun-20 04:29N 37°55' W 122°22'0 0.1
2018-Jun-20 04:00N 37°55' W 122°22'0 0.1
2018-Jun-20 03:30N 37°55' W 122°22'0 0.0
2018-Jun-20 03:00N 37°55' W 122°22'0 0.0
2018-Jun-20 02:30N 37°55' W 122°22'0 0.1
2018-Jun-20 02:00N 37°55' W 122°22'0 0.1
2018-Jun-20 01:30N 37°55' W 122°22'0 0.0
2018-Jun-20 01:00N 37°55' W 122°22'0 0.0
2018-Jun-20 00:30N 37°55' W 122°22'0 0.1
2018-Jun-20 00:00N 37°55' W 122°22'0 0.1
2018-Jun-19 23:30N 37°55' W 122°22'0 0.1
2018-Jun-19 23:00N 37°55' W 122°22'0 0.1
2018-Jun-19 22:30N 37°55' W 122°22'0 0.0
2018-Jun-19 22:00N 37°55' W 122°22'0 0.0
2018-Jun-19 21:30N 37°55' W 122°22'0 0.1
2018-Jun-19 21:00N 37°55' W 122°22'0 0.1
2018-Jun-19 20:30N 37°55' W 122°22'1 1.6
2018-Jun-19 20:00N 37°54' W 122°22'2 4.5
2018-Jun-19 19:30N 37°54' W 122°25'4 8.6
2018-Jun-19 19:00N 37°50' W 122°27'611.4
2018-Jun-19 18:30N 37°47' W 122°33'611.3
2018-Jun-19 18:00N 37°45' W 122°40'5 9.0
2018-Jun-19 17:30N 37°40' W 122°40'510.0
2018-Jun-19 17:00N 37°35' W 122°40'510.1
2018-Jun-19 16:30N 37°30' W 122°40'510.1
2018-Jun-19 16:00N 37°25' W 122°40'510.1
2018-Jun-19 15:30N 37°20' W 122°40'5 9.8
2018-Jun-19 15:00N 37°15' W 122°40'5 9.8
2018-Jun-19 14:30N 37°10' W 122°39'5 9.6
2018-Jun-19 14:00N 37°06' W 122°38'5 9.3
2018-Jun-19 13:30N 37°01' W 122°35'5 9.2
2018-Jun-19 13:00N 36°57' W 122°33'5 9.5
2018-Jun-19 12:28N 36°52' W 122°31'510.2
2018-Jun-19 12:00N 36°48' W 122°28'612.4
2018-Jun-19 11:30N 36°42' W 122°26'612.6
2018-Jun-19 11:00N 36°37' W 122°23'713.5
2018-Jun-19 10:30N 36°30' W 122°19'713.6
2018-Jun-19 10:00N 36°24' W 122°16'713.6
2018-Jun-19 09:30N 36°18' W 122°13'713.2
2018-Jun-19 09:00N 36°12' W 122°10'612.5
2018-Jun-19 08:30N 36°06' W 122°07'612.4
2018-Jun-19 08:00N 36°00' W 122°04'612.2
2018-Jun-19 07:30N 35°54' W 122°01'612.0
2018-Jun-19 07:00N 35°49' W 121°58'611.8
2018-Jun-19 06:30N 35°43' W 121°55'611.7
2018-Jun-19 06:00N 35°38' W 121°53'612.1
2018-Jun-19 05:30N 35°32' W 121°50'612.1
2018-Jun-19 05:00N 35°27' W 121°47'611.5
2018-Jun-19 04:30N 35°22' W 121°44'611.8
2018-Jun-19 04:00N 35°16' W 121°42'612.2
2018-Jun-19 03:30N 35°10' W 121°39'612.1
2018-Jun-19 03:00N 35°05' W 121°36'611.9
2018-Jun-19 02:29N 34°59' W 121°33'611.8
2018-Jun-19 02:00N 34°54' W 121°30'612.2
2018-Jun-19 01:30N 34°48' W 121°28'612.1
2018-Jun-19 01:00N 34°43' W 121°25'611.5
2018-Jun-19 00:30N 34°37' W 121°22'4 8.2
2018-Jun-19 00:00N 34°34' W 121°20'5 9.0
2018-Jun-18 23:30N 34°29' W 121°18'611.9
2018-Jun-18 23:00N 34°24' W 121°15'5 9.8
2018-Jun-18 22:30N 34°19' W 121°13'1 2.4
2018-Jun-18 22:00N 34°18' W 121°13'1 2.4
2018-Jun-18 21:30N 34°17' W 121°12'1 2.4
2018-Jun-18 21:00N 34°16' W 121°11'1 2.5
2018-Jun-18 20:30N 34°15' W 121°11'3 6.1
2018-Jun-18 20:00N 34°12' W 121°09'612.2
2018-Jun-18 19:30N 34°06' W 121°07'612.0
2018-Jun-18 19:00N 34°01' W 121°04'612.0
2018-Jun-18 18:30N 33°55' W 121°01'612.2
2018-Jun-18 18:00N 33°50' W 120°57'611.7
2018-Jun-18 17:30N 33°45' W 120°53'611.9
2018-Jun-18 17:00N 33°40' W 120°49'612.6
2018-Jun-18 16:30N 33°35' W 120°45'612.8
2018-Jun-18 16:00N 33°29' W 120°41'612.9
2018-Jun-18 15:30N 33°24' W 120°37'712.6
2018-Jun-18 14:59N 33°18' W 120°33'912.1
2018-Jun-18 14:16N 33°11' W 120°27'312.1
2018-Jun-18 14:00N 33°08' W 120°25'611.6
2018-Jun-18 13:30N 33°04' W 120°22'612.1
2018-Jun-18 13:00N 32°58' W 120°18'2412.1
2018-Jun-18 11:02N 32°38' W 120°03'  
Track history (hours):
 
Tides and Currents Weather Stations Pressure Air Temp Water Temp Dewpoint Dewpoint Depression Visibility Wind Speed Wind Dir Waves Ship Positions

Stuyvesant

Owner: THE DUTRA GROUP, SAN RAFAEL, CA. More information available from US FCC via Universal Licensing System and Coast Guard Vessel Documentation Center.

Last reported at 2018-Jun-22 00:23 UTC. Time now 2018-Jun-25 11:40 UTC.
Position N 38°51' W 123°55'.

Length 122 m; draft 10 m.

Type: Dredging. MMSI: 368098000.

Date/timePositionNaut miles runAvg speedWind from/ knotsBaromVisibWave heightAir tempDewpointWater temp
2018-Jun-22 00:23N 38°51' W 123°55'410.5
2018-Jun-22 00:00N 38°48' W 123°53'510.5
2018-Jun-21 23:30N 38°43' W 123°51'510.6
2018-Jun-21 23:00N 38°38' W 123°49'510.3
2018-Jun-21 22:30N 38°33' W 123°46'510.3
2018-Jun-21 22:00N 38°29' W 123°41'5 9.9
2018-Jun-21 21:30N 38°25' W 123°37'5 9.6
2018-Jun-21 21:00N 38°22' W 123°33'5 9.5
2018-Jun-21 20:30N 38°18' W 123°30'5 9.3
2018-Jun-21 20:00N 38°15' W 123°26'5 9.5
2018-Jun-21 19:30N 38°11' W 123°22'5 9.2
2018-Jun-21 19:00N 38°07' W 123°18'5 9.4
2018-Jun-21 18:30N 38°04' W 123°14'5 9.9
2018-Jun-21 18:00N 37°60' W 123°10'510.1
2018-Jun-21 17:29N 37°57' W 123°05'510.1
2018-Jun-21 17:00N 37°55' W 122°60'510.3
2018-Jun-21 16:30N 37°52' W 122°54'510.4
2018-Jun-21 16:00N 37°49' W 122°48'510.5
2018-Jun-21 15:30N 37°47' W 122°43'4 8.7
2018-Jun-21 15:00N 37°46' W 122°37'713.1
2018-Jun-21 14:30N 37°49' W 122°30'510.2
2018-Jun-21 14:00N 37°53' W 122°25'2 4.2
2018-Jun-21 13:30N 37°54' W 122°23'1 2.4
2018-Jun-21 12:56N 37°55' W 122°22'0 0.1
2018-Jun-21 12:30N 37°55' W 122°22'0 0.1
2018-Jun-21 12:00N 37°55' W 122°22'0 0.0
2018-Jun-21 11:30N 37°55' W 122°22'0 0.0
2018-Jun-21 11:00N 37°55' W 122°22'0 0.1
2018-Jun-21 10:30N 37°55' W 122°22'0 0.0
2018-Jun-21 10:00N 37°55' W 122°22'0 0.0
2018-Jun-21 09:30N 37°55' W 122°22'0 0.1
2018-Jun-21 09:00N 37°55' W 122°22'0 0.0
2018-Jun-21 08:30N 37°55' W 122°22'0 0.1
2018-Jun-21 08:00N 37°55' W 122°22'0 0.0
2018-Jun-21 07:30N 37°55' W 122°22'0 0.1
2018-Jun-21 07:00N 37°55' W 122°22'0 0.0
2018-Jun-21 06:30N 37°55' W 122°22'0 0.0
2018-Jun-21 06:00N 37°55' W 122°22'0 0.1
2018-Jun-21 05:30N 37°55' W 122°22'0 0.1
2018-Jun-21 05:00N 37°55' W 122°22'0 0.0
2018-Jun-21 04:30N 37°55' W 122°22'0 0.0
2018-Jun-21 03:59N 37°55' W 122°22'0 0.0
2018-Jun-21 03:29N 37°55' W 122°22'0 0.0
2018-Jun-21 03:00N 37°55' W 122°22'0 0.0
2018-Jun-21 02:30N 37°55' W 122°22'0 0.0
2018-Jun-21 02:00N 37°55' W 122°22'0 0.0
2018-Jun-21 01:30N 37°55' W 122°22'0 0.1
2018-Jun-21 01:00N 37°55' W 122°22'0 0.0
2018-Jun-21 00:30N 37°55' W 122°22'0 0.1
2018-Jun-21 00:00N 37°55' W 122°22'0 0.0
2018-Jun-20 23:30N 37°55' W 122°22'0 0.0
2018-Jun-20 23:00N 37°55' W 122°22'0 0.0
2018-Jun-20 22:30N 37°55' W 122°22'0 0.0
2018-Jun-20 22:00N 37°55' W 122°22'0 0.0
2018-Jun-20 21:30N 37°55' W 122°22'0 0.0
2018-Jun-20 21:00N 37°55' W 122°22'0 0.0
2018-Jun-20 20:30N 37°55' W 122°22'0 0.1
2018-Jun-20 20:00N 37°55' W 122°22'0 0.0
2018-Jun-20 19:30N 37°55' W 122°22'0 0.1
2018-Jun-20 19:00N 37°55' W 122°22'0 0.0
2018-Jun-20 18:30N 37°55' W 122°22'0 0.1
2018-Jun-20 18:00N 37°55' W 122°22'0 0.1
2018-Jun-20 17:30N 37°55' W 122°22'0 0.1
2018-Jun-20 17:00N 37°55' W 122°22'0 0.1
2018-Jun-20 16:30N 37°55' W 122°22'0 0.0
2018-Jun-20 15:58N 37°55' W 122°22'0 0.0
2018-Jun-20 15:30N 37°55' W 122°22'0 0.0
2018-Jun-20 15:00N 37°55' W 122°22'0 0.0
2018-Jun-20 14:30N 37°55' W 122°22'0 0.0
2018-Jun-20 14:00N 37°55' W 122°22'0 0.0
2018-Jun-20 13:30N 37°55' W 122°22'0 0.1
2018-Jun-20 13:00N 37°55' W 122°22'0 0.0
2018-Jun-20 12:30N 37°55' W 122°22'0 0.1
2018-Jun-20 12:00N 37°55' W 122°22'0 0.1
2018-Jun-20 11:30N 37°55' W 122°22'0 0.1
2018-Jun-20 11:00N 37°55' W 122°22'0 0.1
2018-Jun-20 10:30N 37°55' W 122°22'0 0.0
2018-Jun-20 10:00N 37°55' W 122°22'0 0.1
2018-Jun-20 09:30N 37°55' W 122°22'0 0.1
2018-Jun-20 09:00N 37°55' W 122°22'0 0.0
2018-Jun-20 08:30N 37°55' W 122°22'0 0.1
2018-Jun-20 08:00N 37°55' W 122°22'0 0.1
2018-Jun-20 07:30N 37°55' W 122°22'0 0.0
2018-Jun-20 07:00N 37°55' W 122°22'0 0.1
2018-Jun-20 06:30N 37°55' W 122°22'0 0.0
2018-Jun-20 06:00N 37°55' W 122°22'0 0.0
2018-Jun-20 05:30N 37°55' W 122°22'0 0.0
2018-Jun-20 05:00N 37°55' W 122°22'0 0.0
2018-Jun-20 04:29N 37°55' W 122°22'0 0.1
2018-Jun-20 04:00N 37°55' W 122°22'0 0.1
2018-Jun-20 03:30N 37°55' W 122°22'0 0.0
2018-Jun-20 03:00N 37°55' W 122°22'0 0.0
2018-Jun-20 02:30N 37°55' W 122°22'0 0.1
2018-Jun-20 02:00N 37°55' W 122°22'0 0.1
2018-Jun-20 01:30N 37°55' W 122°22'0 0.0
2018-Jun-20 01:00N 37°55' W 122°22'0 0.0
2018-Jun-20 00:30N 37°55' W 122°22'0 0.1
2018-Jun-20 00:00N 37°55' W 122°22'0 0.1
2018-Jun-19 23:30N 37°55' W 122°22'0 0.1
2018-Jun-19 23:00N 37°55' W 122°22'0 0.1
2018-Jun-19 22:30N 37°55' W 122°22'0 0.0
2018-Jun-19 22:00N 37°55' W 122°22'0 0.0
2018-Jun-19 21:30N 37°55' W 122°22'0 0.1
2018-Jun-19 21:00N 37°55' W 122°22'0 0.1
2018-Jun-19 20:30N 37°55' W 122°22'1 1.6
2018-Jun-19 20:00N 37°54' W 122°22'2 4.5
2018-Jun-19 19:30N 37°54' W 122°25'4 8.6
2018-Jun-19 19:00N 37°50' W 122°27'611.4
2018-Jun-19 18:30N 37°47' W 122°33'611.3
2018-Jun-19 18:00N 37°45' W 122°40'5 9.0
2018-Jun-19 17:30N 37°40' W 122°40'510.0
2018-Jun-19 17:00N 37°35' W 122°40'510.1
2018-Jun-19 16:30N 37°30' W 122°40'510.1
2018-Jun-19 16:00N 37°25' W 122°40'510.1
2018-Jun-19 15:30N 37°20' W 122°40'5 9.8
2018-Jun-19 15:00N 37°15' W 122°40'5 9.8
2018-Jun-19 14:30N 37°10' W 122°39'5 9.6
2018-Jun-19 14:00N 37°06' W 122°38'5 9.3
2018-Jun-19 13:30N 37°01' W 122°35'5 9.2
2018-Jun-19 13:00N 36°57' W 122°33'5 9.5
2018-Jun-19 12:28N 36°52' W 122°31'510.2
2018-Jun-19 12:00N 36°48' W 122°28'612.4
2018-Jun-19 11:30N 36°42' W 122°26'612.6
2018-Jun-19 11:00N 36°37' W 122°23'713.5
2018-Jun-19 10:30N 36°30' W 122°19'713.6
2018-Jun-19 10:00N 36°24' W 122°16'713.6
2018-Jun-19 09:30N 36°18' W 122°13'713.2
2018-Jun-19 09:00N 36°12' W 122°10'612.5
2018-Jun-19 08:30N 36°06' W 122°07'612.4
2018-Jun-19 08:00N 36°00' W 122°04'612.2
2018-Jun-19 07:30N 35°54' W 122°01'612.0
2018-Jun-19 07:00N 35°49' W 121°58'611.8
2018-Jun-19 06:30N 35°43' W 121°55'611.7
2018-Jun-19 06:00N 35°38' W 121°53'612.1
2018-Jun-19 05:30N 35°32' W 121°50'612.1
2018-Jun-19 05:00N 35°27' W 121°47'611.5
2018-Jun-19 04:30N 35°22' W 121°44'611.8
2018-Jun-19 04:00N 35°16' W 121°42'612.2
2018-Jun-19 03:30N 35°10' W 121°39'612.1
2018-Jun-19 03:00N 35°05' W 121°36'611.9
2018-Jun-19 02:29N 34°59' W 121°33'611.8
2018-Jun-19 02:00N 34°54' W 121°30'612.2
2018-Jun-19 01:30N 34°48' W 121°28'612.1
2018-Jun-19 01:00N 34°43' W 121°25'611.5
2018-Jun-19 00:30N 34°37' W 121°22'4 8.2
2018-Jun-19 00:00N 34°34' W 121°20'5 9.0
2018-Jun-18 23:30N 34°29' W 121°18'611.9
2018-Jun-18 23:00N 34°24' W 121°15'5 9.8
2018-Jun-18 22:30N 34°19' W 121°13'1 2.4
2018-Jun-18 22:00N 34°18' W 121°13'1 2.4
2018-Jun-18 21:30N 34°17' W 121°12'1 2.4
2018-Jun-18 21:00N 34°16' W 121°11'1 2.5
2018-Jun-18 20:30N 34°15' W 121°11'3 6.1
2018-Jun-18 20:00N 34°12' W 121°09'612.2
2018-Jun-18 19:30N 34°06' W 121°07'612.0
2018-Jun-18 19:00N 34°01' W 121°04'612.0
2018-Jun-18 18:30N 33°55' W 121°01'612.2
2018-Jun-18 18:00N 33°50' W 120°57'611.7
2018-Jun-18 17:30N 33°45' W 120°53'611.9
2018-Jun-18 17:00N 33°40' W 120°49'612.6
2018-Jun-18 16:30N 33°35' W 120°45'612.8
2018-Jun-18 16:00N 33°29' W 120°41'612.9
2018-Jun-18 15:30N 33°24' W 120°37'712.6
2018-Jun-18 14:59N 33°18' W 120°33'912.1
2018-Jun-18 14:16N 33°11' W 120°27'312.1
2018-Jun-18 14:00N 33°08' W 120°25'611.6
2018-Jun-18 13:30N 33°04' W 120°22'612.1
2018-Jun-18 13:00N 32°58' W 120°18'2412.1
2018-Jun-18 11:02N 32°38' W 120°03'  

Dump ship's entire track history